createdAt,value
2023-01-10T00:00:02.891Z,3.30
2023-01-10T00:01:02.952Z,3.30
2023-01-10T00:02:03.161Z,3.20
2023-01-10T00:03:03.002Z,3.20
2023-01-10T00:04:02.751Z,3.20
2023-01-10T00:05:02.852Z,3.20
2023-01-10T00:06:02.984Z,3.20
2023-01-10T00:07:02.040Z,3.50
2023-01-10T00:08:02.282Z,3.50
2023-01-10T00:09:01.987Z,3.50
2023-01-10T00:10:02.117Z,3.50
2023-01-10T00:11:02.285Z,3.50
2023-01-10T00:12:02.619Z,3.10
2023-01-10T00:13:02.173Z,3.10
2023-01-10T00:14:02.355Z,3.10
2023-01-10T00:15:02.146Z,3.10
2023-01-10T00:16:02.719Z,3.10
2023-01-10T00:17:02.776Z,3.30
2023-01-10T00:18:02.580Z,3.30
2023-01-10T00:19:02.469Z,3.30
2023-01-10T00:20:02.939Z,3.30
2023-01-10T00:21:02.514Z,3.30
2023-01-10T00:22:02.621Z,3.10
2023-01-10T00:23:02.035Z,3.10
2023-01-10T00:24:02.224Z,3.10
2023-01-10T00:25:02.445Z,3.10
2023-01-10T00:26:02.255Z,3.10
2023-01-10T00:27:02.344Z,2.90
2023-01-10T00:28:02.449Z,2.90
2023-01-10T00:29:02.088Z,2.90
2023-01-10T00:30:02.475Z,2.90
2023-01-10T00:31:02.163Z,2.90
2023-01-10T00:32:01.557Z,3.30
2023-01-10T00:33:01.597Z,3.30
2023-01-10T00:34:01.993Z,3.30
2023-01-10T00:35:01.637Z,3.30
2023-01-10T00:36:01.838Z,3.30
2023-01-10T00:37:01.810Z,3.40
2023-01-10T00:38:01.977Z,3.40
2023-01-10T00:39:01.909Z,3.40
2023-01-10T00:40:01.574Z,3.40
2023-01-10T00:41:01.889Z,3.40
2023-01-10T00:42:02.210Z,3.40
2023-01-10T00:43:02.609Z,3.40
2023-01-10T00:44:02.806Z,3.40
2023-01-10T00:45:02.625Z,3.40
2023-01-10T00:46:02.689Z,3.40
2023-01-10T00:47:01.749Z,3.10
2023-01-10T00:48:01.935Z,3.10
2023-01-10T00:49:02.278Z,3.10
2023-01-10T00:50:01.771Z,3.10
2023-01-10T00:51:01.744Z,3.10
2023-01-10T00:52:02.175Z,3.20
2023-01-10T00:53:02.399Z,3.20
2023-01-10T00:54:02.340Z,3.20
2023-01-10T00:55:02.200Z,3.20
2023-01-10T00:56:02.719Z,3.20
2023-01-10T00:57:02.248Z,2.40
2023-01-10T00:58:02.670Z,2.40
2023-01-10T00:59:02.079Z,2.40
2023-01-10T01:00:02.442Z,2.40
2023-01-10T01:01:02.380Z,2.40
2023-01-10T01:02:02.511Z,3.20
2023-01-10T01:03:02.976Z,3.20
2023-01-10T01:04:02.933Z,3.20
2023-01-10T01:05:02.731Z,3.20
2023-01-10T01:06:02.438Z,3.20
2023-01-10T01:07:02.754Z,2.60
2023-01-10T01:08:02.959Z,2.60
2023-01-10T01:09:03.044Z,2.60
2023-01-10T01:10:02.725Z,2.60
2023-01-10T01:11:03.004Z,2.60
2023-01-10T01:12:02.532Z,2.90
2023-01-10T01:13:02.982Z,2.90
2023-01-10T01:14:02.683Z,2.90
2023-01-10T01:15:02.571Z,2.90
2023-01-10T01:16:02.820Z,2.90
2023-01-10T01:17:02.987Z,2.80
2023-01-10T01:18:02.990Z,2.80
2023-01-10T01:19:03.378Z,2.80
2023-01-10T01:20:03.153Z,2.80
2023-01-10T01:21:03.466Z,2.80
2023-01-10T01:22:03.401Z,3.20
2023-01-10T01:23:03.195Z,3.20
2023-01-10T01:24:03.253Z,3.20
2023-01-10T01:25:03.112Z,3.20
2023-01-10T01:26:03.118Z,3.20
2023-01-10T01:27:02.663Z,2.80
2023-01-10T01:28:02.638Z,2.80
2023-01-10T01:29:02.676Z,2.80
2023-01-10T01:30:02.511Z,2.80
2023-01-10T01:31:02.859Z,2.80
2023-01-10T01:32:03.331Z,3.50
2023-01-10T01:33:03.562Z,3.50
2023-01-10T01:34:03.120Z,3.50
2023-01-10T01:35:03.188Z,3.50
2023-01-10T01:36:03.069Z,3.50
2023-01-10T01:37:02.505Z,3.00
2023-01-10T01:38:02.700Z,3.00
2023-01-10T01:39:02.500Z,3.00
2023-01-10T01:40:02.881Z,3.00
2023-01-10T01:41:02.850Z,3.00
2023-01-10T01:42:03.114Z,3.40
2023-01-10T01:43:02.876Z,3.40
2023-01-10T01:44:02.856Z,3.40
2023-01-10T01:45:03.065Z,3.40
2023-01-10T01:46:03.242Z,3.40
2023-01-10T01:47:02.188Z,3.60
2023-01-10T01:48:02.717Z,3.60
2023-01-10T01:49:02.617Z,3.60
2023-01-10T01:50:02.381Z,3.60
2023-01-10T01:51:02.701Z,3.60
2023-01-10T01:52:02.662Z,3.00
2023-01-10T01:53:02.284Z,3.00
2023-01-10T01:54:02.288Z,3.00
2023-01-10T01:55:02.747Z,3.00
2023-01-10T01:56:02.217Z,3.00
2023-01-10T01:57:02.915Z,3.20
2023-01-10T01:58:02.823Z,3.20
2023-01-10T01:59:02.805Z,3.20
2023-01-10T02:00:02.689Z,3.20
2023-01-10T02:01:02.616Z,3.20
2023-01-10T02:02:01.761Z,3.00
2023-01-10T02:03:03.156Z,3.00
2023-01-10T02:04:01.738Z,3.00
2023-01-10T02:05:01.704Z,3.00
2023-01-10T02:06:01.969Z,3.00
2023-01-10T02:07:02.681Z,3.20
2023-01-10T02:08:02.502Z,3.20
2023-01-10T02:09:02.103Z,3.20
2023-01-10T02:10:02.245Z,3.20
2023-01-10T02:11:02.622Z,3.20
2023-01-10T02:12:02.988Z,3.10
2023-01-10T02:13:02.540Z,3.10
2023-01-10T02:14:02.544Z,3.10
2023-01-10T02:15:02.659Z,3.10
2023-01-10T02:16:02.905Z,3.10
2023-01-10T02:17:02.340Z,3.20
2023-01-10T02:18:01.978Z,3.20
2023-01-10T02:19:02.257Z,3.20
2023-01-10T02:20:02.277Z,3.20
2023-01-10T02:21:01.845Z,3.20
2023-01-10T02:22:02.117Z,3.00
2023-01-10T02:23:02.442Z,3.00
2023-01-10T02:24:02.293Z,3.00
2023-01-10T02:25:02.012Z,3.00
2023-01-10T02:26:01.870Z,3.00
2023-01-10T02:27:01.853Z,3.00
2023-01-10T02:28:01.709Z,3.00
2023-01-10T02:29:01.940Z,3.00
2023-01-10T02:30:01.968Z,3.00
2023-01-10T02:31:01.609Z,3.00
2023-01-10T02:32:01.802Z,3.50
2023-01-10T02:33:05.427Z,3.50
2023-01-10T02:34:02.323Z,3.50
2023-01-10T02:35:01.994Z,3.50
2023-01-10T02:36:01.915Z,3.50
2023-01-10T02:37:01.963Z,4.10
2023-01-10T02:38:02.113Z,4.10
2023-01-10T02:39:01.574Z,4.10
2023-01-10T02:40:01.945Z,4.10
2023-01-10T02:41:01.495Z,4.10
2023-01-10T02:42:02.630Z,3.90
2023-01-10T02:43:02.366Z,3.90
2023-01-10T02:44:02.710Z,3.90
2023-01-10T02:45:02.304Z,3.90
2023-01-10T02:46:02.105Z,3.90
2023-01-10T02:47:01.751Z,4.10
2023-01-10T02:48:02.073Z,4.10
2023-01-10T02:49:02.050Z,4.10
2023-01-10T02:50:02.008Z,4.10
2023-01-10T02:51:02.135Z,4.10
2023-01-10T02:52:02.620Z,4.00
2023-01-10T02:53:02.369Z,4.00
2023-01-10T02:54:02.159Z,4.00
2023-01-10T02:55:02.016Z,4.00
2023-01-10T02:56:02.524Z,4.00
2023-01-10T02:57:02.392Z,4.10
2023-01-10T02:58:02.815Z,4.10
2023-01-10T02:59:02.323Z,4.10
2023-01-10T03:00:02.297Z,4.10
2023-01-10T03:01:02.921Z,4.10
2023-01-10T03:02:03.053Z,4.20
2023-01-10T03:03:02.378Z,4.20
2023-01-10T03:04:02.905Z,4.20
2023-01-10T03:05:02.745Z,4.20
2023-01-10T03:06:02.619Z,4.20
2023-01-10T03:07:03.104Z,4.50
2023-01-10T03:08:03.427Z,4.50
2023-01-10T03:09:03.504Z,4.50
2023-01-10T03:10:03.492Z,4.50
2023-01-10T03:11:03.564Z,4.50
2023-01-10T03:12:03.116Z,4.10
2023-01-10T03:13:02.731Z,4.10
2023-01-10T03:14:03.080Z,4.10
2023-01-10T03:15:02.513Z,4.10
2023-01-10T03:16:03.010Z,4.10
2023-01-10T03:17:04.761Z,3.80
2023-01-10T03:18:02.930Z,3.80
2023-01-10T03:19:03.320Z,3.80
2023-01-10T03:20:03.157Z,3.80
2023-01-10T03:21:02.792Z,3.80
2023-01-10T03:22:02.674Z,4.10
2023-01-10T03:23:02.576Z,4.10
2023-01-10T03:24:02.850Z,4.10
2023-01-10T03:25:02.693Z,4.10
2023-01-10T03:26:02.326Z,4.10
2023-01-10T03:27:03.159Z,4.00
2023-01-10T03:28:02.762Z,4.00
2023-01-10T03:29:02.977Z,4.00
2023-01-10T03:30:02.747Z,4.00
2023-01-10T03:31:03.267Z,4.00
2023-01-10T03:32:02.865Z,3.70
2023-01-10T03:33:03.226Z,3.70
2023-01-10T03:34:02.877Z,3.70
2023-01-10T03:35:03.237Z,3.70
2023-01-10T03:36:03.355Z,3.70
2023-01-10T03:37:02.795Z,4.20
2023-01-10T03:38:02.982Z,4.20
2023-01-10T03:39:02.484Z,4.20
2023-01-10T03:40:02.955Z,4.20
2023-01-10T03:41:02.714Z,4.20
2023-01-10T03:42:02.901Z,3.80
2023-01-10T03:43:03.215Z,3.80
2023-01-10T03:44:03.089Z,3.80
2023-01-10T03:45:03.186Z,3.80
2023-01-10T03:46:03.402Z,3.80
2023-01-10T03:47:03.483Z,4.00
2023-01-10T03:48:02.957Z,4.00
2023-01-10T03:49:03.284Z,4.00
2023-01-10T03:50:02.956Z,4.00
2023-01-10T03:51:03.474Z,4.00
2023-01-10T03:52:02.523Z,4.20
2023-01-10T03:53:02.757Z,4.20
2023-01-10T03:54:02.545Z,4.20
2023-01-10T03:55:02.419Z,4.20
2023-01-10T03:56:02.363Z,4.20
2023-01-10T03:57:03.010Z,4.10
2023-01-10T03:58:02.645Z,4.10
2023-01-10T03:59:03.069Z,4.10
2023-01-10T04:00:02.939Z,4.10
2023-01-10T04:01:02.910Z,4.10
2023-01-10T04:02:02.533Z,3.80
2023-01-10T04:03:02.137Z,3.80
2023-01-10T04:04:02.480Z,3.80
2023-01-10T04:05:02.234Z,3.80
2023-01-10T04:06:02.207Z,3.80
2023-01-10T04:07:02.629Z,3.60
2023-01-10T04:08:02.790Z,3.60
2023-01-10T04:09:02.859Z,3.60
2023-01-10T04:10:02.598Z,3.60
2023-01-10T04:11:02.750Z,3.60
2023-01-10T04:12:03.046Z,4.80
2023-01-10T04:13:02.468Z,4.80
2023-01-10T04:14:02.885Z,4.80
2023-01-10T04:15:03.171Z,4.80
2023-01-10T04:16:02.830Z,4.80
2023-01-10T04:17:02.489Z,4.00
2023-01-10T04:18:02.373Z,4.00
2023-01-10T04:19:02.324Z,4.00
2023-01-10T04:20:02.232Z,4.00
2023-01-10T04:21:02.156Z,4.00
2023-01-10T04:22:02.413Z,4.20
2023-01-10T04:23:02.271Z,4.20
2023-01-10T04:24:02.283Z,4.20
2023-01-10T04:25:02.291Z,4.20
2023-01-10T04:26:02.549Z,4.20
2023-01-10T04:27:02.659Z,3.80
2023-01-10T04:28:02.627Z,3.80
2023-01-10T04:29:02.423Z,3.80
2023-01-10T04:30:02.359Z,3.80
2023-01-10T04:31:02.666Z,3.80
2023-01-10T04:32:02.350Z,4.00
2023-01-10T04:33:02.304Z,4.00
2023-01-10T04:34:01.821Z,4.00
2023-01-10T04:35:01.785Z,4.00
2023-01-10T04:36:02.177Z,4.00
2023-01-10T04:37:02.189Z,3.70
2023-01-10T04:38:02.556Z,3.70
2023-01-10T04:39:02.421Z,3.70
2023-01-10T04:40:02.224Z,3.70
2023-01-10T04:41:02.092Z,3.70
2023-01-10T04:42:02.583Z,3.30
2023-01-10T04:43:02.652Z,3.30
2023-01-10T04:44:02.531Z,3.30
2023-01-10T04:45:02.646Z,3.30
2023-01-10T04:46:02.535Z,3.30
2023-01-10T04:47:02.271Z,3.80
2023-01-10T04:48:02.347Z,3.80
2023-01-10T04:49:02.567Z,3.80
2023-01-10T04:50:02.022Z,3.80
2023-01-10T04:51:02.320Z,3.80
2023-01-10T04:52:02.253Z,3.50
2023-01-10T04:53:02.629Z,3.50
2023-01-10T04:54:02.274Z,3.50
2023-01-10T04:55:02.821Z,3.50
2023-01-10T04:56:02.182Z,3.50
2023-01-10T04:57:02.867Z,3.90
2023-01-10T04:58:02.758Z,3.90
2023-01-10T04:59:02.746Z,3.90
2023-01-10T05:00:02.488Z,3.90
2023-01-10T05:01:02.438Z,3.90
2023-01-10T05:02:03.332Z,4.00
2023-01-10T05:03:02.862Z,4.00
2023-01-10T05:04:02.969Z,4.00
2023-01-10T05:05:02.712Z,4.00
2023-01-10T05:06:03.051Z,4.00
2023-01-10T05:07:02.634Z,3.90
2023-01-10T05:08:02.833Z,3.90
2023-01-10T05:09:02.758Z,3.90
2023-01-10T05:10:02.522Z,3.90
2023-01-10T05:11:02.489Z,3.90
2023-01-10T05:12:02.963Z,3.60
2023-01-10T05:13:02.909Z,3.60
2023-01-10T05:14:02.742Z,3.60
2023-01-10T05:15:02.721Z,3.60
2023-01-10T05:16:02.926Z,3.60
2023-01-10T05:17:03.146Z,4.10
2023-01-10T05:18:03.015Z,4.10
2023-01-10T05:19:02.826Z,4.10
2023-01-10T05:20:03.400Z,4.10
2023-01-10T05:21:03.305Z,4.10
2023-01-10T05:22:03.732Z,4.10
2023-01-10T05:23:03.411Z,4.10
2023-01-10T05:24:03.351Z,4.10
2023-01-10T05:25:03.907Z,4.10
2023-01-10T05:26:03.436Z,4.10
2023-01-10T05:27:03.147Z,4.80
2023-01-10T05:28:02.998Z,4.80
2023-01-10T05:29:02.956Z,4.80
2023-01-10T05:30:03.332Z,4.80
2023-01-10T05:31:02.776Z,4.80
2023-01-10T05:32:03.130Z,4.30
2023-01-10T05:33:02.823Z,4.30
2023-01-10T05:34:02.509Z,4.30
2023-01-10T05:35:02.584Z,4.30
2023-01-10T05:36:02.759Z,4.30
2023-01-10T05:37:02.777Z,3.60
2023-01-10T05:38:02.707Z,3.60
2023-01-10T05:39:02.700Z,3.60
2023-01-10T05:40:02.730Z,3.60
2023-01-10T05:41:02.861Z,3.60
2023-01-10T05:42:02.998Z,4.00
2023-01-10T05:43:03.045Z,4.00
2023-01-10T05:44:03.297Z,4.00
2023-01-10T05:45:02.894Z,4.00
2023-01-10T05:46:03.193Z,4.00
2023-01-10T05:47:02.163Z,4.50
2023-01-10T05:48:02.349Z,4.50
2023-01-10T05:49:02.573Z,4.50
2023-01-10T05:50:02.304Z,4.50
2023-01-10T05:51:02.287Z,4.50
2023-01-10T05:52:03.364Z,4.50
2023-01-10T05:53:03.422Z,4.50
2023-01-10T05:54:02.892Z,4.50
2023-01-10T05:55:03.325Z,4.50
2023-01-10T05:56:03.111Z,4.50
2023-01-10T05:57:02.695Z,3.60
2023-01-10T05:58:02.371Z,3.60
2023-01-10T05:59:14.005Z,3.60
2023-01-10T06:00:04.944Z,3.60
2023-01-10T06:01:02.443Z,3.60
2023-01-10T06:02:03.105Z,3.60
2023-01-10T06:03:03.261Z,3.60
2023-01-10T06:04:02.654Z,3.60
2023-01-10T06:05:02.735Z,3.60
2023-01-10T06:06:03.077Z,3.60
2023-01-10T06:07:02.435Z,3.70
2023-01-10T06:08:02.207Z,3.70
2023-01-10T06:09:02.371Z,3.70
2023-01-10T06:10:02.379Z,3.70
2023-01-10T06:11:02.340Z,3.70
2023-01-10T06:12:02.565Z,3.30
2023-01-10T06:13:02.683Z,3.30
2023-01-10T06:14:02.612Z,3.30
2023-01-10T06:15:03.044Z,3.30
2023-01-10T06:16:02.607Z,3.30
2023-01-10T06:17:02.202Z,3.70
2023-01-10T06:18:02.496Z,3.70
2023-01-10T06:19:02.595Z,3.70
2023-01-10T06:20:02.577Z,3.70
2023-01-10T06:21:02.519Z,3.70
2023-01-10T06:22:02.659Z,3.40
2023-01-10T06:23:02.375Z,3.40
2023-01-10T06:24:02.700Z,3.40
2023-01-10T06:25:02.718Z,3.40
2023-01-10T06:26:02.894Z,3.40
2023-01-10T06:27:02.515Z,3.70
2023-01-10T06:28:02.088Z,3.70
2023-01-10T06:29:02.009Z,3.70
2023-01-10T06:30:02.065Z,3.70
2023-01-10T06:31:02.340Z,3.70
2023-01-10T06:32:02.197Z,3.50
2023-01-10T06:33:02.425Z,3.50
2023-01-10T06:34:02.252Z,3.50
2023-01-10T06:35:02.184Z,3.50
2023-01-10T06:36:02.333Z,3.50
2023-01-10T06:37:03.020Z,3.80
2023-01-10T06:38:02.452Z,3.80
2023-01-10T06:39:02.969Z,3.80
2023-01-10T06:40:02.477Z,3.80
2023-01-10T06:41:02.693Z,3.80
2023-01-10T06:42:02.251Z,3.40
2023-01-10T06:43:02.331Z,3.40
2023-01-10T06:44:02.026Z,3.40
2023-01-10T06:45:02.202Z,3.40
2023-01-10T06:46:02.130Z,3.40
2023-01-10T06:47:02.336Z,4.10
2023-01-10T06:48:01.813Z,4.10
2023-01-10T06:49:01.947Z,4.10
2023-01-10T06:50:02.356Z,4.10
2023-01-10T06:51:01.979Z,4.10
2023-01-10T06:52:02.069Z,3.40
2023-01-10T06:53:01.902Z,3.40
2023-01-10T06:54:02.075Z,3.40
2023-01-10T06:55:01.956Z,3.40
2023-01-10T06:56:02.555Z,3.40
2023-01-10T06:57:02.163Z,3.60
2023-01-10T06:58:01.995Z,3.60
2023-01-10T06:59:02.001Z,3.60
2023-01-10T07:00:02.265Z,3.60
2023-01-10T07:01:02.156Z,3.60
2023-01-10T07:02:02.422Z,3.70
2023-01-10T07:03:02.886Z,3.70
2023-01-10T07:04:02.473Z,3.70
2023-01-10T07:05:02.868Z,3.70
2023-01-10T07:06:02.332Z,4.60
2023-01-10T07:07:03.405Z,4.60
2023-01-10T07:08:02.989Z,4.60
2023-01-10T07:09:03.545Z,4.60
2023-01-10T07:10:03.079Z,4.60
2023-01-10T07:11:03.921Z,4.10
2023-01-10T07:12:02.498Z,4.10
2023-01-10T07:13:02.409Z,4.10
2023-01-10T07:14:02.372Z,4.10
2023-01-10T07:15:02.492Z,4.10
2023-01-10T07:16:02.743Z,4.00
2023-01-10T07:17:03.267Z,4.00
2023-01-10T07:18:03.228Z,4.00
2023-01-10T07:19:02.780Z,4.00
2023-01-10T07:20:03.102Z,4.00
2023-01-10T07:21:03.207Z,4.30
2023-01-10T07:22:02.905Z,4.30
2023-01-10T07:23:03.351Z,4.30
2023-01-10T07:24:03.234Z,4.30
2023-01-10T07:25:02.785Z,4.30
2023-01-10T07:26:02.892Z,3.60
2023-01-10T07:27:02.565Z,3.60
2023-01-10T07:28:02.413Z,3.60
2023-01-10T07:29:02.624Z,3.60
2023-01-10T07:30:02.391Z,3.60
2023-01-10T07:31:02.575Z,3.50
2023-01-10T07:32:03.395Z,3.50
2023-01-10T07:33:03.120Z,3.50
2023-01-10T07:34:03.329Z,3.50
2023-01-10T07:35:02.931Z,3.50
2023-01-10T07:36:03.412Z,4.10
2023-01-10T07:37:02.416Z,4.10
2023-01-10T07:38:02.703Z,4.10
2023-01-10T07:39:02.690Z,4.10
2023-01-10T07:40:02.435Z,4.10
2023-01-10T07:41:02.465Z,3.80
2023-01-10T07:42:02.831Z,3.80
2023-01-10T07:43:03.220Z,3.80
2023-01-10T07:44:03.195Z,3.80
2023-01-10T07:45:02.840Z,3.80
2023-01-10T07:46:03.093Z,4.50
2023-01-10T07:47:03.290Z,4.50
2023-01-10T07:48:02.792Z,4.50
2023-01-10T07:49:03.058Z,4.50
2023-01-10T07:50:02.778Z,4.50
2023-01-10T07:51:03.225Z,3.70
2023-01-10T07:52:02.625Z,3.70
2023-01-10T07:53:02.671Z,3.70
2023-01-10T07:54:02.484Z,3.70
2023-01-10T07:55:02.405Z,3.70
2023-01-10T07:56:02.291Z,3.60
2023-01-10T07:57:02.997Z,3.60
2023-01-10T07:58:02.597Z,3.60
2023-01-10T07:59:03.009Z,3.60
2023-01-10T08:00:02.677Z,3.60
2023-01-10T08:01:02.845Z,4.20
2023-01-10T08:02:02.271Z,4.20
2023-01-10T08:03:02.272Z,4.20
2023-01-10T08:04:02.151Z,4.20
2023-01-10T08:05:01.820Z,4.20
2023-01-10T08:06:02.024Z,3.80
2023-01-10T08:07:02.356Z,3.80
2023-01-10T08:08:02.263Z,3.80
2023-01-10T08:09:02.305Z,3.80
2023-01-10T08:10:02.698Z,3.80
2023-01-10T08:11:02.240Z,4.20
2023-01-10T08:12:02.151Z,4.20
2023-01-10T08:13:16.978Z,4.20
2023-01-10T08:14:01.903Z,4.20
2023-01-10T08:15:02.054Z,4.20
2023-01-10T08:16:01.814Z,4.00
2023-01-10T08:17:02.266Z,4.00
2023-01-10T08:18:04.161Z,4.00
2023-01-10T08:19:01.979Z,4.00
2023-01-10T08:20:01.783Z,4.00
2023-01-10T08:21:01.653Z,5.20
2023-01-10T08:22:01.787Z,5.20
2023-01-10T08:23:02.087Z,5.20
2023-01-10T08:24:02.063Z,5.20
2023-01-10T08:25:01.947Z,5.20
2023-01-10T08:26:01.993Z,6.40
2023-01-10T08:27:02.571Z,6.40
2023-01-10T08:28:01.897Z,6.40
2023-01-10T08:29:01.982Z,6.40
2023-01-10T08:30:02.179Z,6.40
2023-01-10T08:31:01.981Z,14.10
2023-01-10T08:32:02.082Z,14.10
2023-01-10T08:33:01.698Z,14.10
2023-01-10T08:34:01.699Z,14.10
2023-01-10T08:35:01.464Z,14.10
2023-01-10T08:36:02.005Z,14.30
2023-01-10T08:37:01.935Z,14.30
2023-01-10T08:38:02.392Z,14.30
2023-01-10T08:39:01.953Z,14.30
2023-01-10T08:40:02.281Z,14.30
2023-01-10T08:41:01.893Z,8.90
2023-01-10T08:42:01.487Z,8.90
2023-01-10T08:43:01.992Z,8.90
2023-01-10T08:44:01.927Z,8.90
2023-01-10T08:45:01.908Z,8.90
2023-01-10T08:46:02.082Z,7.30
2023-01-10T08:47:01.599Z,7.30
2023-01-10T08:48:01.881Z,7.30
2023-01-10T08:49:01.686Z,7.30
2023-01-10T08:50:02.021Z,7.30
2023-01-10T08:51:02.022Z,5.30
2023-01-10T08:52:02.369Z,5.30
2023-01-10T08:53:02.110Z,5.30
2023-01-10T08:54:01.828Z,5.30
2023-01-10T08:55:02.151Z,5.30
2023-01-10T08:56:03.205Z,5.20
2023-01-10T08:57:01.976Z,5.20
2023-01-10T08:58:02.231Z,5.20
2023-01-10T08:59:02.585Z,5.20
2023-01-10T09:00:02.477Z,5.20
2023-01-10T09:01:02.294Z,4.10
2023-01-10T09:02:03.098Z,4.10
2023-01-10T09:03:03.035Z,4.10
2023-01-10T09:04:02.936Z,4.10
2023-01-10T09:05:04.882Z,4.10
2023-01-10T09:06:03.400Z,4.40
2023-01-10T09:07:02.498Z,4.40
2023-01-10T09:08:02.556Z,4.40
2023-01-10T09:09:02.965Z,4.40
2023-01-10T09:10:03.006Z,4.40
2023-01-10T09:11:02.458Z,4.30
2023-01-10T09:12:02.926Z,4.30
2023-01-10T09:13:02.667Z,4.30
2023-01-10T09:14:03.097Z,4.30
2023-01-10T09:15:02.763Z,4.30
2023-01-10T09:16:03.180Z,4.10
2023-01-10T09:17:02.976Z,4.10
2023-01-10T09:18:02.635Z,4.10
2023-01-10T09:19:02.948Z,4.10
2023-01-10T09:20:02.917Z,4.10
2023-01-10T09:21:02.773Z,4.60
2023-01-10T09:22:02.738Z,4.60
2023-01-10T09:23:03.120Z,4.60
2023-01-10T09:24:02.763Z,4.60
2023-01-10T09:25:03.282Z,4.60
2023-01-10T09:26:03.070Z,3.40
2023-01-10T09:27:03.132Z,3.40
2023-01-10T09:28:03.668Z,3.40
2023-01-10T09:29:03.627Z,3.40
2023-01-10T09:30:03.703Z,3.40
2023-01-10T09:31:03.201Z,4.40
2023-01-10T09:32:02.359Z,4.40
2023-01-10T09:33:02.354Z,4.40
2023-01-10T09:34:02.910Z,4.40
2023-01-10T09:35:02.766Z,4.40
2023-01-10T09:36:02.692Z,4.50
2023-01-10T09:37:03.065Z,4.50
2023-01-10T09:38:02.790Z,4.50
2023-01-10T09:39:02.659Z,4.50
2023-01-10T09:40:02.840Z,4.50
2023-01-10T09:41:02.677Z,4.50
2023-01-10T09:42:02.171Z,4.50
2023-01-10T09:43:02.635Z,4.50
2023-01-10T09:44:02.752Z,4.50
2023-01-10T09:45:02.674Z,4.50
2023-01-10T09:46:02.181Z,4.60
2023-01-10T09:47:06.203Z,4.60
2023-01-10T09:48:02.448Z,4.60
2023-01-10T09:49:02.728Z,4.60
2023-01-10T09:50:02.362Z,4.60
2023-01-10T09:51:02.589Z,4.30
2023-01-10T09:52:03.148Z,4.30
2023-01-10T09:53:02.945Z,4.30
2023-01-10T09:54:11.287Z,4.30
2023-01-10T09:55:03.798Z,4.30
2023-01-10T09:56:03.158Z,3.50
2023-01-10T09:57:02.391Z,3.50
2023-01-10T09:58:02.199Z,3.50
2023-01-10T09:59:02.637Z,3.50
2023-01-10T10:00:02.662Z,3.50
2023-01-10T10:01:02.779Z,5.20
2023-01-10T10:02:02.427Z,5.20
2023-01-10T10:03:02.145Z,5.20
2023-01-10T10:04:02.239Z,5.20
2023-01-10T10:05:02.230Z,5.20
2023-01-10T10:06:11.700Z,3.90
2023-01-10T10:07:02.920Z,3.90
2023-01-10T10:08:02.619Z,3.90
2023-01-10T10:09:04.866Z,3.90
2023-01-10T10:10:02.937Z,3.90
2023-01-10T10:11:02.926Z,4.10
2023-01-10T10:12:02.402Z,4.10
2023-01-10T10:13:02.272Z,4.10
2023-01-10T10:14:02.203Z,4.10
2023-01-10T10:15:02.530Z,4.10
2023-01-10T10:16:02.301Z,4.20
2023-01-10T10:17:01.875Z,4.20
2023-01-10T10:18:02.143Z,4.20
2023-01-10T10:19:02.115Z,4.20
2023-01-10T10:20:01.704Z,4.20
2023-01-10T10:21:01.829Z,4.00
2023-01-10T10:22:02.640Z,4.00
2023-01-10T10:23:02.463Z,4.00
2023-01-10T10:24:02.136Z,4.00
2023-01-10T10:25:02.153Z,4.00
2023-01-10T10:26:02.653Z,4.10
2023-01-10T10:27:02.706Z,4.10
2023-01-10T10:28:02.330Z,4.10
2023-01-10T10:29:02.782Z,4.10
2023-01-10T10:30:02.548Z,4.10
2023-01-10T10:31:02.926Z,3.90
2023-01-10T10:32:02.726Z,3.90
2023-01-10T10:33:02.656Z,3.90
2023-01-10T10:34:02.453Z,3.90
2023-01-10T10:35:02.715Z,3.90
2023-01-10T10:36:02.652Z,4.10
2023-01-10T10:37:01.728Z,4.10
2023-01-10T10:38:01.441Z,4.10
2023-01-10T10:39:01.728Z,4.10
2023-01-10T10:40:01.796Z,4.10
2023-01-10T10:41:01.497Z,3.90
2023-01-10T10:42:02.430Z,3.90
2023-01-10T10:43:02.277Z,3.90
2023-01-10T10:44:02.440Z,3.90
2023-01-10T10:45:02.210Z,3.90
2023-01-10T10:46:02.502Z,4.30
2023-01-10T10:47:02.700Z,4.30
2023-01-10T10:48:02.891Z,4.30
2023-01-10T10:49:02.351Z,4.30
2023-01-10T10:50:02.264Z,4.30
2023-01-10T10:51:02.699Z,3.40
2023-01-10T10:52:02.258Z,3.40
2023-01-10T10:53:02.296Z,3.40
2023-01-10T10:54:01.756Z,3.40
2023-01-10T10:55:01.814Z,3.40
2023-01-10T10:56:02.313Z,3.90
2023-01-10T10:57:02.775Z,3.90
2023-01-10T10:58:02.403Z,3.90
2023-01-10T10:59:02.527Z,3.90
2023-01-10T11:00:02.282Z,3.90
2023-01-10T11:01:02.542Z,3.90
2023-01-10T11:02:03.366Z,3.90
2023-01-10T11:03:02.905Z,3.90
2023-01-10T11:04:03.415Z,3.90
2023-01-10T11:05:03.023Z,3.90
2023-01-10T11:06:03.279Z,3.70
2023-01-10T11:07:03.059Z,3.70
2023-01-10T11:08:03.127Z,3.70
2023-01-10T11:09:03.523Z,3.70
2023-01-10T11:10:03.534Z,3.70
2023-01-10T11:11:03.135Z,4.00
2023-01-10T11:12:02.725Z,4.00
2023-01-10T11:13:02.794Z,4.00
2023-01-10T11:14:02.411Z,4.00
2023-01-10T11:15:02.263Z,4.00
2023-01-10T11:16:02.793Z,4.10
2023-01-10T11:17:02.797Z,4.10
2023-01-10T11:18:02.781Z,4.10
2023-01-10T11:19:03.394Z,4.10
2023-01-10T11:20:02.925Z,4.10
2023-01-10T11:21:02.986Z,4.20
2023-01-10T11:22:03.392Z,4.20
2023-01-10T11:23:03.125Z,4.20
2023-01-10T11:24:02.980Z,4.20
2023-01-10T11:25:03.150Z,4.20
2023-01-10T11:26:03.384Z,3.80
2023-01-10T11:27:03.102Z,3.80
2023-01-10T11:28:03.119Z,3.80
2023-01-10T11:29:02.645Z,3.80
2023-01-10T11:30:02.664Z,3.80
2023-01-10T11:31:03.039Z,4.40
2023-01-10T11:32:03.515Z,4.40
2023-01-10T11:33:03.445Z,4.40
2023-01-10T11:34:03.215Z,4.40
2023-01-10T11:35:03.530Z,4.40
2023-01-10T11:36:03.436Z,4.10
2023-01-10T11:37:02.044Z,4.10
2023-01-10T11:38:02.362Z,4.10
2023-01-10T11:39:02.485Z,4.10
2023-01-10T11:40:02.061Z,4.10
2023-01-10T11:41:02.688Z,4.60
2023-01-10T11:42:02.724Z,4.60
2023-01-10T11:43:03.289Z,4.60
2023-01-10T11:44:02.789Z,4.60
2023-01-10T11:45:03.383Z,4.60
2023-01-10T11:46:03.258Z,4.80
2023-01-10T11:47:03.234Z,4.80
2023-01-10T11:48:02.358Z,4.80
2023-01-10T11:49:07.831Z,4.80
2023-01-10T11:50:02.287Z,4.80
2023-01-10T11:51:02.633Z,4.90
2023-01-10T11:52:02.571Z,4.90
2023-01-10T11:53:03.040Z,4.90
2023-01-10T11:54:03.022Z,4.90
2023-01-10T11:55:03.084Z,4.90
2023-01-10T11:56:02.762Z,4.10
2023-01-10T11:57:03.370Z,4.10
2023-01-10T11:58:02.885Z,4.10
2023-01-10T11:59:03.097Z,4.10
2023-01-10T12:00:02.719Z,4.10
2023-01-10T12:01:02.676Z,5.70
2023-01-10T12:02:02.633Z,5.70
2023-01-10T12:03:02.682Z,5.70
2023-01-10T12:04:02.167Z,5.70
2023-01-10T12:05:02.675Z,5.70
2023-01-10T12:06:02.082Z,3.70
2023-01-10T12:07:02.628Z,3.70
2023-01-10T12:08:02.257Z,3.70
2023-01-10T12:09:02.711Z,3.70
2023-01-10T12:10:02.298Z,3.70
2023-01-10T12:11:02.790Z,4.60
2023-01-10T12:12:02.695Z,4.60
2023-01-10T12:13:02.651Z,4.60
2023-01-10T12:14:02.510Z,4.60
2023-01-10T12:15:02.779Z,4.60
2023-01-10T12:16:02.980Z,4.70
2023-01-10T12:17:03.047Z,4.70
2023-01-10T12:18:01.942Z,4.70
2023-01-10T12:19:02.107Z,4.70
2023-01-10T12:20:01.529Z,4.70
2023-01-10T12:21:01.578Z,3.80
2023-01-10T12:22:01.893Z,3.80
2023-01-10T12:23:02.139Z,3.80
2023-01-10T12:24:02.092Z,3.80
2023-01-10T12:25:01.724Z,3.80
2023-01-10T12:26:11.520Z,7.20
2023-01-10T12:27:01.978Z,7.20
2023-01-10T12:28:01.915Z,7.20
2023-01-10T12:29:02.391Z,7.20
2023-01-10T12:30:01.944Z,7.20
2023-01-10T12:31:02.423Z,5.40
2023-01-10T12:32:02.098Z,5.40
2023-01-10T12:33:02.943Z,5.40
2023-01-10T12:34:02.423Z,5.40
2023-01-10T12:35:02.670Z,5.40
2023-01-10T12:36:03.000Z,3.00
2023-01-10T12:37:02.799Z,3.00
2023-01-10T12:38:02.432Z,3.00
2023-01-10T12:39:02.853Z,3.00
2023-01-10T12:40:02.871Z,3.00
2023-01-10T12:41:02.534Z,3.30
2023-01-10T12:42:02.548Z,3.30
2023-01-10T12:43:01.833Z,3.30
2023-01-10T12:44:02.089Z,3.30
2023-01-10T12:45:02.119Z,3.30
2023-01-10T12:46:09.749Z,3.70
2023-01-10T12:47:08.085Z,3.70
2023-01-10T12:48:02.702Z,3.70
2023-01-10T12:49:02.782Z,3.70
2023-01-10T12:50:02.346Z,3.70
2023-01-10T12:51:02.115Z,3.90
2023-01-10T12:52:02.549Z,3.90
2023-01-10T12:53:02.195Z,3.90
2023-01-10T12:54:02.155Z,3.90
2023-01-10T12:55:02.446Z,3.90
2023-01-10T12:56:02.452Z,3.40
2023-01-10T12:57:02.391Z,3.40
2023-01-10T12:58:02.609Z,3.40
2023-01-10T12:59:02.889Z,3.40
2023-01-10T13:00:02.906Z,3.40
2023-01-10T13:01:02.864Z,3.90
2023-01-10T13:02:02.936Z,3.90
2023-01-10T13:03:01.958Z,3.90
2023-01-10T13:04:02.466Z,3.90
2023-01-10T13:05:02.067Z,3.90
2023-01-10T13:06:01.925Z,2.90
2023-01-10T13:07:01.954Z,2.90
2023-01-10T13:08:02.550Z,2.90
2023-01-10T13:09:02.225Z,2.90
2023-01-10T13:10:02.711Z,2.90
2023-01-10T13:11:02.626Z,3.80
2023-01-10T13:12:02.658Z,3.80
2023-01-10T13:13:02.225Z,3.80
2023-01-10T13:14:02.162Z,3.80
2023-01-10T13:15:02.379Z,3.80
2023-01-10T13:16:01.958Z,4.20
2023-01-10T13:17:02.284Z,4.20
2023-01-10T13:18:02.211Z,4.20